Victorville, CA

11:29 AM PST on February 09, 2016 (GMT -0800)
Southern California Logistics

Weather History for KVCV - October, 2013

Change the Weather History Date:

Tuesday, October 8, 2013

  Actual Average (KDAG) Record (KDAG)
Temperature  
Mean Temperature 63 °F 71 °F  
Max Temperature 78 °F 86 °F 101 °F (1996)
Min Temperature 48 °F 57 °F 42 °F (1949)
Degree Days  
Heating Degree Days 2    
Cooling Degree Days 0    
Growing Degree Days 13 (Base 50)    
Moisture  
Dew Point 26 °F    
Average Humidity 29    
Maximum Humidity 77    
Minimum Humidity 11    
Precipitation  
Precipitation 0.00 in 0.01 in 0.11 in (1945)
Month to date precipitation 0.05  
Year to date precipitation 3.02  
Sea Level Pressure  
Sea Level Pressure 29.86 in    
Wind  
Wind Speed 8 mph (South)    
Max Wind Speed 24 mph    
Max Gust Speed 28 mph    
Visibility 10 miles    
Events      
T = Trace of Precipitation, MM = Missing Value Source: NWS Daily Summary

Daily Weather History Graph

Daily Weather History Graph

Search for Another Location

Airport or City:

Trip Planner

Search our weather history database for the weather conditions in past years. The results will help you decide how hot, cold, wet, or windy it might be!

Date:

Astronomy

Oct. 08, 2013 Rise Set
Actual Time 6:49 AM PDT 6:23 PM PDT
Civil Twilight 6:24 AM PDT 6:48 PM PDT
Nautical Twilight 5:55 AM PDT 7:17 PM PDT
Astronomical Twilight 5:26 AM PDT 7:47 PM PDT
Moon 10:39 AM PDT (10/8) 9:13 PM PDT (10/8)
Length of Visible Light 12h 24m
Length of Day
11h 33m
Waxing Crescent, 17% of the Moon is Illuminated
Oct 8
Waxing Crescent
Oct 11
First Quarter
Oct 18
Full
Oct 26
Last Quarter
Nov 3
New

Hourly Weather History & Observations

Time (PDT) Temp. Dew Point Humidity Pressure Visibility Wind Dir Wind Speed Gust Speed Precip Events Conditions
12:15 AM 59.0 °F 15.8 °F 19% 29.95 in 10.0 mi South 6.9 mph - N/A   Unknown
12:35 AM 55.4 °F 15.8 °F 21% 29.94 in 10.0 mi South 5.8 mph - N/A   Unknown
12:55 AM 55.4 °F 15.8 °F 21% 29.93 in 10.0 mi SSE 6.9 mph - N/A   Unknown
1:15 AM 57.2 °F 15.8 °F 20% 29.94 in 10.0 mi SSE 6.9 mph - N/A   Unknown
1:35 AM 57.2 °F 15.8 °F 20% 29.94 in 10.0 mi SSE 6.9 mph - N/A   Unknown
1:55 AM 55.4 °F 15.8 °F 21% 29.93 in 10.0 mi Calm Calm - N/A   Unknown
2:15 AM 53.6 °F 17.6 °F 24% 29.93 in 10.0 mi Calm Calm - N/A   Unknown
2:35 AM 51.8 °F 15.8 °F 24% 29.93 in 10.0 mi Calm Calm - N/A   Unknown
2:55 AM 51.8 °F 15.8 °F 24% 29.93 in 10.0 mi Calm Calm - N/A   Unknown
3:15 AM 53.6 °F 19.4 °F 26% 29.92 in 10.0 mi SSW 3.5 mph - N/A   Unknown
3:35 AM 53.6 °F 19.4 °F 26% 29.92 in 10.0 mi SSE 6.9 mph - N/A   Unknown
3:55 AM 53.6 °F 19.4 °F 26% 29.92 in 10.0 mi South 6.9 mph - N/A   Unknown
4:15 AM 53.6 °F 21.2 °F 28% 29.92 in 10.0 mi South 6.9 mph - N/A   Unknown
4:35 AM 50.0 °F 21.2 °F 32% 29.91 in 10.0 mi South 8.1 mph - N/A   Unknown
4:55 AM 48.2 °F 19.4 °F 32% 29.91 in 10.0 mi South 4.6 mph - N/A   Unknown
5:15 AM 48.2 °F 19.4 °F 32% 29.91 in 10.0 mi SW 4.6 mph - N/A   Unknown
5:35 AM 50.0 °F 21.2 °F 32% 29.90 in 10.0 mi South 3.5 mph - N/A   Unknown
5:55 AM 50.0 °F 23.0 °F 35% 29.91 in 10.0 mi Calm Calm - N/A   Unknown
6:15 AM 48.2 °F 23.0 °F 37% 29.90 in 10.0 mi South 3.5 mph - N/A   Unknown
6:35 AM 48.2 °F 21.2 °F 34% 29.90 in 10.0 mi South 6.9 mph - N/A   Unknown
6:55 AM 53.6 °F 24.8 °F 33% 29.90 in 10.0 mi SSE 8.1 mph - N/A   Unknown
7:15 AM 50.0 °F 24.8 °F 37% 29.91 in 10.0 mi Calm Calm - N/A   Unknown
7:35 AM 51.8 °F 24.8 °F 35% 29.91 in 10.0 mi Calm Calm - N/A   Unknown
7:55 AM 53.6 °F 24.8 °F 33% 29.92 in 10.0 mi SSE 3.5 mph - N/A   Unknown
8:15 AM 57.2 °F 23.0 °F 27% 29.92 in 10.0 mi SE 4.6 mph - N/A   Unknown
8:35 AM 62.6 °F 21.2 °F 20% 29.92 in 10.0 mi SE 4.6 mph - N/A   Unknown
8:55 AM 64.4 °F 21.2 °F 19% 29.92 in 10.0 mi SE 5.8 mph - N/A   Unknown
9:15 AM 66.2 °F 19.4 °F 17% 29.92 in 10.0 mi ESE 5.8 mph - N/A   Unknown
9:35 AM 69.8 °F 19.4 °F 15% 29.92 in 10.0 mi Calm Calm - N/A   Unknown
9:55 AM 71.6 °F 17.6 °F 13% 29.91 in 10.0 mi West 5.8 mph - N/A   Unknown
10:15 AM 73.4 °F 17.6 °F 12% 29.91 in 10.0 mi SSW 5.8 mph - N/A   Unknown
10:35 AM 73.4 °F 17.6 °F 12% 29.91 in 10.0 mi SW 9.2 mph - N/A   Unknown
10:55 AM 73.4 °F 17.6 °F 12% 29.91 in 10.0 mi SSW 5.8 mph - N/A   Unknown
11:15 AM 75.2 °F 17.6 °F 11% 29.90 in 10.0 mi SSW 10.4 mph - N/A   Unknown
11:35 AM 75.2 °F 17.6 °F 11% 29.90 in 10.0 mi SW 6.9 mph 10.4 mph N/A   Unknown
11:55 AM 75.2 °F 17.6 °F 11% 29.89 in 10.0 mi WSW 4.6 mph - N/A   Unknown
12:15 PM 77.0 °F 19.4 °F 12% 29.88 in 10.0 mi SW 9.2 mph - N/A   Unknown
12:35 PM 75.2 °F 19.4 °F 12% 29.87 in 10.0 mi South 9.2 mph 18.4 mph N/A   Unknown
12:55 PM 77.0 °F 21.2 °F 12% 29.86 in 10.0 mi SSW 11.5 mph 17.3 mph N/A   Unknown
1:15 PM 78.8 °F 21.2 °F 12% 29.85 in 10.0 mi SSW 10.4 mph - N/A   Unknown
1:35 PM 77.0 °F 21.2 °F 12% 29.84 in 10.0 mi South 9.2 mph - N/A   Unknown
1:55 PM 77.0 °F 23.0 °F 13% 29.83 in 10.0 mi South 12.7 mph 16.1 mph N/A   Unknown
2:15 PM 78.8 °F 24.8 °F 14% 29.82 in 10.0 mi South 13.8 mph 18.4 mph N/A   Unknown
2:35 PM 78.8 °F 24.8 °F 14% 29.82 in 10.0 mi SSW 16.1 mph 19.6 mph N/A   Unknown
2:55 PM 77.0 °F 24.8 °F 14% 29.81 in 10.0 mi South 13.8 mph 19.6 mph N/A   Unknown
3:15 PM 77.0 °F 24.8 °F 14% 29.81 in 10.0 mi SSW 16.1 mph 23.0 mph N/A   Unknown
3:35 PM 77.0 °F 24.8 °F 14% 29.80 in 10.0 mi South 18.4 mph 21.9 mph N/A   Unknown
3:55 PM 77.0 °F 24.8 °F 14% 29.80 in 10.0 mi SSW 16.1 mph - N/A   Unknown
4:15 PM 75.2 °F 24.8 °F 15% 29.79 in 10.0 mi South 17.3 mph 25.3 mph N/A   Unknown
4:35 PM 75.2 °F 24.8 °F 15% 29.79 in 10.0 mi South 23.0 mph 26.5 mph N/A   Unknown
4:55 PM 73.4 °F 26.6 °F 18% 29.78 in 10.0 mi South 20.7 mph - N/A   Unknown
5:15 PM 71.6 °F 30.2 °F 22% 29.78 in 10.0 mi South 20.7 mph - N/A   Unknown
5:35 PM 71.6 °F 30.2 °F 22% 29.78 in 10.0 mi South 20.7 mph 24.2 mph N/A   Unknown
5:55 PM 69.8 °F 35.6 °F 28% 29.78 in 10.0 mi SSW 18.4 mph - N/A   Unknown
6:15 PM 66.2 °F 35.6 °F 32% 29.78 in 10.0 mi South 17.3 mph 25.3 mph N/A   Unknown
6:35 PM 66.2 °F 37.4 °F 35% 29.78 in 10.0 mi South 18.4 mph 27.6 mph N/A   Unknown
6:55 PM 64.4 °F 41.0 °F 42% 29.77 in 10.0 mi South 21.9 mph - N/A   Unknown
7:15 PM 62.6 °F 42.8 °F 48% 29.77 in 10.0 mi South 19.6 mph - N/A   Unknown
7:35 PM 62.6 °F 42.8 °F 48% 29.77 in 10.0 mi South 19.6 mph 25.3 mph N/A   Unknown
7:55 PM 62.6 °F 42.8 °F 48% 29.78 in 10.0 mi South 15.0 mph - N/A   Unknown
8:15 PM 62.6 °F 37.4 °F 39% 29.79 in 10.0 mi SSW 10.4 mph - N/A   Unknown
8:35 PM 60.8 °F 41.0 °F 48% 29.80 in 10.0 mi SW 6.9 mph - N/A   Unknown
8:55 PM 60.8 °F 39.2 °F 45% 29.81 in 10.0 mi WSW 6.9 mph - N/A   Unknown
9:15 PM 59.0 °F 41.0 °F 51% 29.81 in 10.0 mi WSW 3.5 mph - N/A   Unknown
9:35 PM 57.2 °F 39.2 °F 51% 29.81 in 10.0 mi SSW 9.2 mph - N/A   Unknown
9:55 PM 57.2 °F 39.2 °F 51% 29.80 in 10.0 mi South 11.5 mph - N/A   Unknown
10:15 PM 55.4 °F 42.8 °F 63% 29.79 in 10.0 mi South 12.7 mph 17.3 mph N/A   Unknown
10:35 PM 55.4 °F 44.6 °F 67% 29.78 in 10.0 mi South 16.1 mph - N/A   Unknown
10:55 PM 53.6 °F 46.4 °F 77% 29.77 in 10.0 mi South 17.3 mph - N/A   Unknown
11:15 PM 53.6 °F 46.4 °F 77% 29.76 in 10.0 mi South 16.1 mph 20.7 mph N/A   Unknown
11:35 PM 55.4 °F 46.4 °F 72% 29.75 in 10.0 mi South 19.6 mph - N/A   Unknown
11:55 PM 53.6 °F 46.4 °F 77% 29.74 in 10.0 mi South 24.2 mph 27.6 mph N/A   Unknown